Time;durP1;ratioP1;P1;durP2;ratioP2;P2;SDS_P1;SDS_P2;PMS_P1;PMS_P2;Temp;Humidity;BMP_temperature;BMP_pressure;BME280_temperature;BME280_humidity;BME280_pressure;Samples;Min_cycle;Max_cycle;Signal;HPM_P1;HPM_P2
2022/01/12 05:08:16;;;;;;;41.33;23.00;;;3.80;99.90;;;;;;4933853;29;20283;-67
2022/01/12 05:13:28;;;;;;;38.90;24.95;;;3.90;99.90;;;;;;4933946;29;20261;-67
2022/01/12 05:15:55;;;;;;;47.78;26.27;;;3.90;99.90;;;;;;4942150;29;20216;-68
2022/01/12 05:18:23;;;;;;;35.22;24.33;;;3.90;99.90;;;;;;4934216;29;20321;-68
2022/01/12 05:20:50;;;;;;;51.35;25.33;;;3.90;99.90;;;;;;4941343;29;20643;-69
2022/01/12 05:23:16;;;;;;;40.28;23.30;;;3.90;99.90;;;;;;4933401;29;20202;-68
2022/01/12 05:25:46;;;;;;;41.97;24.65;;;3.80;99.90;;;;;;4933499;29;20218;-69
2022/01/12 05:28:12;;;;;;;40.97;26.25;;;3.90;99.90;;;;;;4937314;29;20205;-67
2022/01/12 05:30:39;;;;;;;41.92;26.17;;;3.90;99.90;;;;;;4947074;28;20283;-69
2022/01/12 05:33:06;;;;;;;45.72;25.30;;;3.90;99.90;;;;;;4937362;28;20210;-67
2022/01/12 05:35:34;;;;;;;45.53;26.77;;;3.90;99.90;;;;;;4936321;29;20282;-68
2022/01/12 05:38:02;;;;;;;51.78;27.23;;;3.90;99.90;;;;;;4924878;29;20682;-68
2022/01/12 05:40:30;;;;;;;46.65;25.52;;;3.90;99.90;;;;;;4936142;29;20213;-68
2022/01/12 05:42:59;;;;;;;44.60;24.77;;;3.90;99.90;;;;;;4933313;29;20672;-68
2022/01/12 05:45:26;;;;;;;43.75;25.90;;;3.90;99.90;;;;;;4945522;29;20630;-68
2022/01/12 05:50:49;;;;;;;45.92;26.08;;;3.90;99.90;;;;;;4919872;29;20219;-68
2022/01/12 05:53:17;;;;;;;47.53;27.23;;;3.90;99.90;;;;;;4933104;29;20206;-68
2022/01/12 05:55:43;;;;;;;47.97;26.05;;;3.90;99.90;;;;;;4945677;29;20209;-68
2022/01/12 05:58:11;;;;;;;44.25;26.30;;;3.90;99.90;;;;;;4951940;28;20239;-67
2022/01/12 06:00:37;;;;;;;47.90;26.65;;;3.90;99.90;;;;;;4936161;29;20241;-67
2022/01/12 06:03:04;;;;;;;49.97;26.65;;;3.90;99.90;;;;;;4932872;29;20269;-67
2022/01/12 06:05:31;;;;;;;54.95;29.23;;;3.90;99.90;;;;;;4933993;29;20202;-67
2022/01/12 06:07:59;;;;;;;51.55;24.33;;;3.90;99.90;;;;;;4932913;29;20284;-68
2022/01/12 06:10:28;;;;;;;40.50;26.23;;;3.90;99.90;;;;;;4942886;29;20220;-68
2022/01/12 06:12:55;;;;;;;41.88;24.65;;;3.90;99.90;;;;;;4952222;28;20209;-68
2022/01/12 06:15:21;;;;;;;42.17;26.02;;;4.00;99.90;;;;;;4936978;28;20213;-68
2022/01/12 06:17:48;;;;;;;48.40;26.17;;;3.90;99.90;;;;;;4933187;29;20261;-68
2022/01/12 06:20:15;;;;;;;45.60;25.50;;;3.90;99.90;;;;;;4940271;29;20585;-68
2022/01/12 06:22:42;;;;;;;46.90;26.67;;;4.00;99.90;;;;;;4942257;28;20202;-67
2022/01/12 06:25:14;;;;;;;45.45;25.80;;;4.00;99.90;;;;;;4937628;29;20285;-67
2022/01/12 06:27:49;;;;;;;45.60;28.17;;;4.00;99.90;;;;;;4931417;29;20206;-67
2022/01/12 06:32:59;;;;;;;52.15;27.65;;;4.00;99.90;;;;;;4941786;29;20197;-67
2022/01/12 06:35:26;;;;;;;53.38;28.33;;;4.00;99.90;;;;;;4955687;28;20210;-66
2022/01/12 06:37:54;;;;;;;50.03;28.70;;;4.00;99.90;;;;;;4949207;28;20370;-68
2022/01/12 06:40:22;;;;;;;52.08;28.42;;;4.10;99.90;;;;;;4937814;28;20301;-68
2022/01/12 06:42:49;;;;;;;46.67;26.02;;;4.00;99.90;;;;;;4937637;29;20257;-67
2022/01/12 06:45:16;;;;;;;52.17;28.48;;;4.00;99.90;;;;;;4937348;29;20217;-68
2022/01/12 06:47:42;;;;;;;51.53;26.70;;;4.00;99.90;;;;;;4940410;29;20197;-67
2022/01/12 06:50:10;;;;;;;50.97;26.05;;;4.00;99.90;;;;;;4955576;28;20295;-67
2022/01/12 06:52:36;;;;;;;46.40;26.83;;;4.00;99.90;;;;;;4939487;28;20214;-68
2022/01/12 06:55:03;;;;;;;52.15;26.50;;;4.00;99.90;;;;;;4935697;29;20202;-68
2022/01/12 06:57:31;;;;;;;50.35;26.67;;;4.00;99.90;;;;;;4937224;29;20217;-67
2022/01/12 06:59:58;;;;;;;45.40;24.85;;;4.10;99.90;;;;;;4953847;28;20272;-68
2022/01/12 07:02:25;;;;;;;54.80;26.40;;;4.10;99.90;;;;;;4936336;29;20365;-69
2022/01/12 07:04:52;;;;;;;43.30;25.88;;;4.10;99.90;;;;;;4945378;29;20209;-69
2022/01/12 07:07:19;;;;;;;45.80;24.63;;;4.10;99.90;;;;;;4935445;29;20202;-68
2022/01/12 07:09:46;;;;;;;38.67;24.08;;;4.10;99.90;;;;;;4936145;29;20228;-68
2022/01/12 07:12:12;;;;;;;46.72;26.67;;;4.10;99.90;;;;;;4952545;29;20237;-67
2022/01/12 07:14:40;;;;;;;41.42;24.92;;;4.10;99.90;;;;;;4955437;28;20209;-68
2022/01/12 07:17:08;;;;;;;44.05;24.23;;;4.10;99.90;;;;;;4936267;28;20210;-68
2022/01/12 07:19:35;;;;;;;50.55;26.05;;;4.10;99.90;;;;;;4932059;29;20224;-69
2022/01/12 07:22:01;;;;;;;48.03;26.58;;;4.10;99.90;;;;;;4934243;29;20296;-68
2022/01/12 07:24:28;;;;;;;42.90;25.23;;;4.10;99.90;;;;;;4943319;29;20206;-67
2022/01/12 07:26:55;;;;;;;44.50;26.15;;;4.10;99.90;;;;;;4955082;28;20302;-67
2022/01/12 07:29:21;;;;;;;47.83;26.05;;;4.10;99.90;;;;;;4953172;28;20205;-67
2022/01/12 07:31:49;;;;;;;47.63;26.80;;;4.10;99.90;;;;;;4935279;29;20229;-67
2022/01/12 07:34:16;;;;;;;45.90;24.20;;;4.10;99.90;;;;;;4934168;29;20650;-67
2022/01/12 07:36:44;;;;;;;46.50;25.33;;;4.10;99.90;;;;;;4932405;29;20206;-67
2022/01/12 07:39:11;;;;;;;45.90;24.73;;;4.20;99.90;;;;;;4947701;29;20225;-68
2022/01/12 07:41:38;;;;;;;46.88;24.65;;;4.20;99.90;;;;;;4935497;29;20234;-67
2022/01/12 07:44:05;;;;;;;41.97;24.05;;;4.20;99.90;;;;;;4935784;29;20221;-67
2022/01/12 07:46:32;;;;;;;42.38;25.48;;;4.20;99.90;;;;;;4935096;29;20821;-68
2022/01/12 07:49:00;;;;;;;46.40;24.55;;;4.20;99.90;;;;;;4945631;29;20212;-67
2022/01/12 07:51:27;;;;;;;48.17;24.80;;;4.20;99.90;;;;;;4940500;28;20222;-67
2022/01/12 07:53:53;;;;;;;47.97;25.00;;;4.20;99.90;;;;;;4934665;29;20585;-67
2022/01/12 07:56:20;;;;;;;46.20;25.17;;;4.20;99.90;;;;;;4934705;29;20730;-67
2022/01/12 07:58:47;;;;;;;50.22;25.00;;;4.20;99.90;;;;;;4936249;29;20251;-67
2022/01/12 08:01:14;;;;;;;56.58;27.52;;;4.20;99.90;;;;;;4934177;29;20312;-67
2022/01/12 08:03:40;;;;;;;42.05;22.00;;;4.30;99.90;;;;;;4943660;29;20209;-68
2022/01/12 08:06:08;;;;;;;49.35;24.85;;;4.30;99.90;;;;;;4934129;28;20259;-67
2022/01/12 08:08:35;;;;;;;45.58;24.30;;;4.30;99.90;;;;;;4932813;29;20210;-67
2022/01/12 08:11:01;;;;;;;43.90;23.13;;;4.30;99.90;;;;;;4934169;29;20280;-68
2022/01/12 08:13:28;;;;;;;35.45;20.55;;;4.30;99.90;;;;;;4927322;29;20226;-68
2022/01/12 08:15:55;;;;;;;36.92;18.98;;;4.30;99.90;;;;;;4945924;29;20205;-67
2022/01/12 08:18:22;;;;;;;31.48;17.58;;;4.40;99.90;;;;;;4939432;29;20225;-67
2022/01/12 08:20:48;;;;;;;34.53;17.40;;;4.40;99.90;;;;;;4934350;29;20238;-68
2022/01/12 08:23:16;;;;;;;33.05;17.50;;;4.40;99.90;;;;;;4939818;29;20201;-67
2022/01/12 08:25:43;;;;;;;38.63;17.67;;;4.40;99.90;;;;;;4934450;29;20218;-67
2022/01/12 08:28:11;;;;;;;40.65;17.58;;;4.50;99.90;;;;;;4940167;29;20204;-67
2022/01/12 08:30:37;;;;;;;32.92;17.10;;;4.40;99.90;;;;;;4933518;29;20230;-67
2022/01/12 08:33:06;;;;;;;35.90;19.33;;;4.50;99.90;;;;;;4937939;29;20627;-67
2022/01/12 08:35:33;;;;;;;30.40;18.10;;;4.50;99.90;;;;;;4934876;28;20209;-67
2022/01/12 08:38:00;;;;;;;30.13;16.27;;;4.50;99.90;;;;;;4923038;29;20233;-67
2022/01/12 08:40:29;;;;;;;35.25;18.30;;;4.50;99.90;;;;;;4943219;29;20225;-67
2022/01/12 08:42:56;;;;;;;38.92;19.15;;;4.50;99.90;;;;;;4934126;29;20209;-68
2022/01/12 08:45:22;;;;;;;51.47;20.40;;;4.60;99.90;;;;;;4937691;28;20222;-69
2022/01/12 08:47:49;;;;;;;30.88;16.88;;;4.60;99.90;;;;;;4940964;29;20202;-69
2022/01/12 08:50:19;;;;;;;40.13;17.92;;;4.60;99.90;;;;;;4925155;29;20210;-69
2022/01/12 08:52:47;;;;;;;38.47;18.35;;;4.60;99.90;;;;;;4930054;29;20310;-68
2022/01/12 08:55:15;;;;;;;38.85;18.52;;;4.60;99.90;;;;;;4932989;29;20357;-68
2022/01/12 08:57:44;;;;;;;35.20;17.58;;;4.60;99.90;;;;;;4938027;29;20209;-68
2022/01/12 09:00:12;;;;;;;33.72;15.82;;;4.70;99.90;;;;;;4952746;28;20627;-68
2022/01/12 09:02:39;;;;;;;29.95;16.33;;;4.70;99.90;;;;;;4944897;28;20276;-68
2022/01/12 09:05:08;;;;;;;39.00;18.30;;;4.70;99.90;;;;;;4938270;28;20257;-68
2022/01/12 09:07:35;;;;;;;37.63;17.05;;;4.70;99.90;;;;;;4933625;28;20217;-68
2022/01/12 09:10:02;;;;;;;38.05;18.67;;;4.70;99.90;;;;;;4951513;28;20669;-67
2022/01/12 09:12:28;;;;;;;32.88;17.08;;;4.70;99.90;;;;;;4932848;28;20229;-68
2022/01/12 09:14:56;;;;;;;28.90;16.20;;;4.70;99.90;;;;;;4936578;29;20210;-68
2022/01/12 09:17:24;;;;;;;36.63;17.15;;;4.70;99.90;;;;;;4933190;29;20268;-68
2022/01/12 09:19:53;;;;;;;38.50;17.67;;;4.80;99.90;;;;;;4933233;29;20324;-68
2022/01/12 09:22:21;;;;;;;37.88;17.27;;;4.80;99.90;;;;;;4930173;29;20226;-68
2022/01/12 09:24:49;;;;;;;29.42;14.82;;;4.80;99.90;;;;;;4951675;28;20693;-68
2022/01/12 09:27:17;;;;;;;32.45;16.73;;;4.80;99.90;;;;;;4946061;28;20202;-68
2022/01/12 09:29:44;;;;;;;33.47;15.70;;;4.80;99.90;;;;;;4937884;29;20205;-68
2022/01/12 09:32:12;;;;;;;34.30;15.45;;;4.80;99.90;;;;;;4938211;29;20725;-68
2022/01/12 09:34:39;;;;;;;33.47;16.70;;;4.80;99.90;;;;;;4948211;28;20202;-68
2022/01/12 09:37:06;;;;;;;33.75;16.73;;;4.90;99.90;;;;;;4945266;29;20205;-68
2022/01/12 09:39:34;;;;;;;28.05;15.32;;;4.90;99.90;;;;;;4932590;29;20686;-68
2022/01/12 09:42:01;;;;;;;28.70;14.48;;;4.90;99.90;;;;;;4923040;29;20217;-68
2022/01/12 09:44:32;;;;;;;27.85;15.80;;;4.90;99.90;;;;;;4948529;29;20216;-68
2022/01/12 09:47:00;;;;;;;27.95;16.48;;;5.00;99.90;;;;;;4931125;29;20243;-68
2022/01/12 09:49:28;;;;;;;30.92;16.05;;;5.00;99.90;;;;;;4937603;29;20198;-68
2022/01/12 09:51:57;;;;;;;27.58;14.82;;;5.00;99.90;;;;;;4933006;29;20569;-69
2022/01/12 09:54:24;;;;;;;24.77;14.02;;;5.00;99.90;;;;;;4934104;29;20602;-68
2022/01/12 09:56:51;;;;;;;30.60;16.63;;;5.00;99.90;;;;;;4933748;29;20209;-68
2022/01/12 09:59:18;;;;;;;25.48;13.32;;;5.00;99.90;;;;;;4933816;29;20730;-68
2022/01/12 10:01:47;;;;;;;30.40;15.77;;;5.00;99.90;;;;;;4933269;29;20260;-68
2022/01/12 10:04:16;;;;;;;27.10;13.85;;;4.90;99.90;;;;;;4932085;29;20532;-69
2022/01/12 10:06:46;;;;;;;25.95;14.25;;;5.00;99.90;;;;;;4925939;29;20293;-69
2022/01/12 10:09:13;;;;;;;24.25;13.90;;;5.00;99.90;;;;;;4932679;29;20666;-69
2022/01/12 10:11:49;;;;;;;33.20;14.65;;;5.00;99.90;;;;;;4932627;29;20233;-69
2022/01/12 10:14:15;;;;;;;23.60;13.77;;;5.10;99.90;;;;;;4933085;29;20242;-69
2022/01/12 10:16:50;;;;;;;31.55;14.68;;;5.10;99.90;;;;;;4932618;29;20206;-69
2022/01/12 10:19:26;;;;;;;23.27;14.10;;;5.10;99.90;;;;;;4932363;29;20251;-69
2022/01/12 10:21:55;;;;;;;28.25;13.10;;;5.10;99.90;;;;;;4932455;29;20265;-69
2022/01/12 10:24:22;;;;;;;24.55;14.27;;;5.10;99.90;;;;;;4932670;29;20213;-68
2022/01/12 10:26:50;;;;;;;21.00;12.70;;;5.20;99.90;;;;;;4932555;29;20217;-68
2022/01/12 10:29:18;;;;;;;23.88;13.13;;;5.20;99.90;;;;;;4933362;29;20710;-69
2022/01/12 10:31:51;;;;;;;26.58;13.45;;;5.20;99.90;;;;;;4932332;29;20238;-68
2022/01/12 10:34:20;;;;;;;23.73;14.50;;;5.20;99.90;;;;;;4914414;29;20226;-69
2022/01/12 10:36:48;;;;;;;24.88;13.38;;;5.30;99.90;;;;;;4913945;29;20222;-69
2022/01/12 10:39:18;;;;;;;21.98;12.35;;;5.30;99.90;;;;;;4921192;29;20233;-66
2022/01/12 10:41:56;;;;;;;23.55;12.82;;;5.30;99.90;;;;;;4931834;29;20245;-68
2022/01/12 10:44:25;;;;;;;22.88;12.48;;;5.30;99.90;;;;;;4931664;29;20233;-70
2022/01/12 10:47:02;;;;;;;21.50;13.10;;;5.40;99.90;;;;;;4930346;29;20202;-67
2022/01/12 10:49:30;;;;;;;20.10;13.15;;;5.40;99.90;;;;;;4931879;29;20629;-68
2022/01/12 10:51:57;;;;;;;22.65;13.45;;;5.40;99.90;;;;;;4932018;29;20226;-68
2022/01/12 10:54:26;;;;;;;25.95;14.73;;;5.40;99.90;;;;;;4931639;29;20269;-67
2022/01/12 10:56:53;;;;;;;23.27;12.77;;;5.30;99.90;;;;;;4932190;29;20230;-69
2022/01/12 10:59:22;;;;;;;27.55;13.50;;;5.40;99.90;;;;;;4932180;29;20347;-68
2022/01/12 11:01:49;;;;;;;21.52;12.90;;;5.40;99.90;;;;;;4931655;29;20297;-67
2022/01/12 11:04:15;;;;;;;24.80;12.07;;;5.40;99.90;;;;;;4932803;29;20213;-68
2022/01/12 11:06:42;;;;;;;18.45;10.10;;;5.40;99.90;;;;;;4932382;29;20682;-67
2022/01/12 11:09:09;;;;;;;21.35;12.40;;;5.40;99.90;;;;;;4932442;29;20738;-68
2022/01/12 11:11:37;;;;;;;24.70;13.40;;;5.30;99.90;;;;;;4932407;29;20230;-68
2022/01/12 11:14:03;;;;;;;22.98;11.60;;;5.30;99.90;;;;;;4934060;29;20210;-68
2022/01/12 11:16:30;;;;;;;22.15;11.32;;;5.30;99.90;;;;;;4935673;29;20238;-68
2022/01/12 11:19:00;;;;;;;24.13;13.50;;;5.30;99.90;;;;;;4934884;29;20240;-69
2022/01/12 11:21:34;;;;;;;25.02;11.50;;;5.30;99.90;;;;;;4935023;29;20222;-68
2022/01/12 11:24:02;;;;;;;23.67;13.90;;;5.30;99.90;;;;;;4935763;29;20205;-69
2022/01/12 11:26:31;;;;;;;19.23;12.57;;;5.40;99.90;;;;;;4935357;29;20244;-67
2022/01/12 11:29:00;;;;;;;27.90;13.55;;;5.40;99.90;;;;;;4935395;29;20194;-68
2022/01/12 11:31:31;;;;;;;23.05;12.98;;;5.40;99.90;;;;;;4935338;29;20230;-67
2022/01/12 11:33:58;;;;;;;22.42;12.48;;;5.30;99.90;;;;;;4935887;29;20198;-68
2022/01/12 11:36:27;;;;;;;29.02;12.48;;;5.40;99.90;;;;;;4935429;29;20213;-68
2022/01/12 11:39:01;;;;;;;21.67;12.23;;;5.40;99.90;;;;;;4935230;29;20226;-69
2022/01/12 11:41:29;;;;;;;22.77;11.02;;;5.40;99.90;;;;;;4934115;29;20229;-69
2022/01/12 11:44:05;;;;;;;23.45;12.75;;;5.40;99.90;;;;;;4933204;29;20578;-68
2022/01/12 11:46:46;;;;;;;20.60;12.90;;;5.40;99.90;;;;;;4934706;29;20209;-68
2022/01/12 11:49:24;;;;;;;24.05;11.63;;;5.40;99.90;;;;;;4934259;29;20233;-68
2022/01/12 11:51:51;;;;;;;26.98;12.80;;;5.40;99.90;;;;;;4934823;29;20311;-68
2022/01/12 11:54:20;;;;;;;27.08;13.85;;;5.50;99.90;;;;;;4934595;29;20213;-68
2022/01/12 11:56:53;;;;;;;26.65;11.50;;;5.50;99.90;;;;;;4934101;29;20682;-69
2022/01/12 11:59:22;;;;;;;19.33;11.27;;;5.50;99.90;;;;;;4934480;29;20292;-68
2022/01/12 12:01:51;;;;;;;26.85;14.13;;;5.50;99.90;;;;;;4934124;29;20240;-68
2022/01/12 12:04:27;;;;;;;39.30;18.40;;;5.50;99.90;;;;;;4934913;29;20265;-68
2022/01/12 12:07:08;;;;;;;30.55;15.57;;;5.50;99.90;;;;;;4928887;29;20205;-68
2022/01/12 12:09:44;;;;;;;37.08;17.35;;;5.60;99.90;;;;;;4933851;29;20217;-69
2022/01/12 12:12:13;;;;;;;26.20;12.77;;;5.60;99.90;;;;;;4920706;29;20222;-68
2022/01/12 12:14:41;;;;;;;15.95;10.27;;;5.60;99.90;;;;;;4926928;29;20202;-69
2022/01/12 12:17:09;;;;;;;18.25;9.75;;;5.60;99.90;;;;;;4934820;29;20256;-67
2022/01/12 12:19:37;;;;;;;19.25;11.55;;;5.60;99.90;;;;;;4934026;29;20233;-70
2022/01/12 12:22:12;;;;;;;17.27;11.15;;;5.60;99.90;;;;;;4934048;29;20325;-69
2022/01/12 12:24:40;;;;;;;17.95;9.93;;;5.60;99.90;;;;;;4934434;29;20292;-70
2022/01/12 12:27:10;;;;;;;20.00;10.25;;;5.60;99.90;;;;;;4934222;29;20217;-66
2022/01/12 12:29:37;;;;;;;19.38;10.90;;;5.60;99.90;;;;;;4933912;29;20321;-69
2022/01/12 12:32:12;;;;;;;21.55;10.00;;;5.60;99.90;;;;;;4933892;29;20728;-67
2022/01/12 12:34:40;;;;;;;19.17;10.20;;;5.60;99.90;;;;;;4930615;29;20205;-69
2022/01/12 12:37:09;;;;;;;14.60;9.80;;;5.50;99.90;;;;;;4934549;29;20273;-68
2022/01/12 12:39:38;;;;;;;18.88;10.40;;;5.60;99.90;;;;;;4949850;29;20229;-68
2022/01/12 12:42:14;;;;;;;19.65;11.32;;;5.60;99.90;;;;;;4939979;28;20222;-68
2022/01/12 12:44:41;;;;;;;16.45;9.93;;;5.60;99.90;;;;;;4941083;29;20284;-67
2022/01/12 12:47:13;;;;;;;16.75;10.10;;;5.70;99.90;;;;;;4934047;29;20249;-68
2022/01/12 12:49:51;;;;;;;22.02;10.27;;;5.60;99.90;;;;;;4950671;29;20202;-68
2022/01/12 12:52:28;;;;;;;17.42;9.95;;;5.70;99.90;;;;;;4936583;28;20806;-67
2022/01/12 12:54:58;;;;;;;19.85;9.00;;;5.70;99.90;;;;;;4914605;29;20221;-69
2022/01/12 12:57:25;;;;;;;18.23;8.90;;;5.60;99.90;;;;;;4933882;29;20203;-68
2022/01/12 13:00:05;;;;;;;16.67;9.13;;;5.70;99.90;;;;;;4932495;29;20229;-68
2022/01/12 13:02:37;;;;;;;20.48;10.73;;;5.60;99.90;;;;;;4943930;29;20236;-70
2022/01/12 13:05:05;;;;;;;20.40;9.48;;;5.70;99.90;;;;;;4930119;28;20590;-68
2022/01/12 13:07:37;;;;;;;14.93;8.63;;;5.60;99.90;;;;;;4935230;29;20209;-68
2022/01/12 13:10:05;;;;;;;18.73;9.93;;;5.60;99.90;;;;;;4932463;29;20226;-69
2022/01/12 13:12:37;;;;;;;15.27;8.23;;;5.70;99.90;;;;;;4934932;29;20218;-69
2022/01/12 13:15:06;;;;;;;19.67;9.07;;;5.70;99.90;;;;;;4933388;29;20209;-69
2022/01/12 13:17:33;;;;;;;14.38;9.25;;;5.70;99.90;;;;;;4938832;29;20214;-69
2022/01/12 13:22:46;;;;;;;15.63;8.27;;;5.70;99.90;;;;;;4938799;29;20621;-69
2022/01/12 13:25:16;;;;;;;17.80;10.52;;;5.70;99.90;;;;;;4932785;29;20569;-69
2022/01/12 13:27:45;;;;;;;18.77;10.50;;;5.70;99.90;;;;;;4937721;29;20209;-69
2022/01/12 13:30:23;;;;;;;21.40;9.35;;;5.80;99.90;;;;;;4935597;29;20202;-68
2022/01/12 13:32:52;;;;;;;19.10;8.27;;;5.80;99.90;;;;;;4932633;29;20297;-68
2022/01/12 13:35:27;;;;;;;18.00;10.55;;;5.80;99.90;;;;;;4934067;29;20712;-68
2022/01/12 13:37:55;;;;;;;16.77;9.43;;;5.80;99.90;;;;;;4929627;29;20260;-68
2022/01/12 13:40:22;;;;;;;21.27;9.73;;;5.70;99.90;;;;;;4927832;29;20225;-69
2022/01/12 13:42:50;;;;;;;19.33;10.18;;;5.70;99.90;;;;;;4925370;29;20209;-69
2022/01/12 13:45:22;;;;;;;18.55;9.65;;;5.70;99.90;;;;;;4931417;29;20210;-69
2022/01/12 13:47:56;;;;;;;14.35;9.07;;;5.80;99.90;;;;;;4930219;29;20206;-69
2022/01/12 13:50:30;;;;;;;14.20;8.65;;;5.80;99.90;;;;;;4926306;29;20252;-69
2022/01/12 13:52:58;;;;;;;17.55;9.00;;;5.70;99.90;;;;;;4932267;29;20231;-69
2022/01/12 13:55:25;;;;;;;16.08;8.73;;;5.70;99.90;;;;;;4931443;29;20206;-69
2022/01/12 13:58:04;;;;;;;16.25;9.00;;;5.70;99.90;;;;;;4927385;29;20202;-68
2022/01/12 14:00:31;;;;;;;10.15;7.13;;;5.70;99.90;;;;;;4932279;29;21082;-69
2022/01/12 14:02:58;;;;;;;17.50;8.40;;;5.70;99.90;;;;;;4932846;29;20248;-68
2022/01/12 14:05:38;;;;;;;14.77;8.50;;;5.70;99.90;;;;;;4933039;29;20221;-68
2022/01/12 14:08:12;;;;;;;18.17;8.55;;;5.70;99.90;;;;;;4932592;29;20210;-69
2022/01/12 14:10:42;;;;;;;14.18;8.85;;;5.70;99.90;;;;;;4926573;29;20229;-69
2022/01/12 14:13:09;;;;;;;14.60;7.10;;;5.70;99.90;;;;;;4933696;29;20309;-68
2022/01/12 14:15:36;;;;;;;21.67;9.13;;;5.70;99.90;;;;;;4933500;29;20691;-69
2022/01/12 14:18:05;;;;;;;18.25;8.88;;;5.70;99.90;;;;;;4932849;29;20197;-69
2022/01/12 14:20:36;;;;;;;19.55;10.10;;;5.70;99.90;;;;;;4927693;29;20226;-68
2022/01/12 14:23:05;;;;;;;16.27;8.88;;;5.80;99.90;;;;;;4932683;29;20225;-68
2022/01/12 14:25:41;;;;;;;15.00;8.35;;;5.70;99.90;;;;;;4931904;29;20679;-68
2022/01/12 14:28:10;;;;;;;16.88;8.73;;;5.80;99.90;;;;;;4932878;29;20217;-67
2022/01/12 14:30:37;;;;;;;22.20;8.95;;;5.80;99.90;;;;;;4931951;29;20225;-68
2022/01/12 14:33:04;;;;;;;15.38;8.05;;;5.80;99.90;;;;;;4926400;29;20206;-68
2022/01/12 14:35:32;;;;;;;22.20;10.02;;;5.80;99.90;;;;;;4930067;29;20258;-68
2022/01/12 14:37:59;;;;;;;16.13;8.90;;;5.80;99.90;;;;;;4932674;29;20252;-68
2022/01/12 14:40:26;;;;;;;18.58;9.85;;;5.80;99.90;;;;;;4929204;29;20226;-68
2022/01/12 14:42:55;;;;;;;24.00;10.75;;;5.80;99.90;;;;;;4938329;29;20628;-68
2022/01/12 14:45:26;;;;;;;21.85;9.65;;;5.80;99.90;;;;;;4942266;29;20210;-68
2022/01/12 14:47:55;;;;;;;14.90;7.38;;;5.80;99.90;;;;;;4936646;29;20571;-69
2022/01/12 14:50:22;;;;;;;18.77;9.63;;;5.80;99.90;;;;;;4934850;29;20281;-69
2022/01/12 14:52:50;;;;;;;15.80;9.68;;;5.80;99.90;;;;;;4936726;29;20588;-68
2022/01/12 14:55:19;;;;;;;19.20;8.30;;;5.80;99.90;;;;;;4937686;29;20241;-68
2022/01/12 14:58:03;;;;;;;14.10;7.88;;;5.80;99.90;;;;;;4935988;29;20229;-68
2022/01/12 15:00:35;;;;;;;15.73;8.68;;;5.80;99.90;;;;;;4936581;29;20284;-68
2022/01/12 15:03:04;;;;;;;14.85;8.30;;;5.80;99.90;;;;;;4931478;29;20289;-69
2022/01/12 15:05:32;;;;;;;14.32;8.35;;;5.80;99.90;;;;;;4929027;29;20251;-69
2022/01/12 15:08:00;;;;;;;14.50;8.73;;;5.80;99.90;;;;;;4935304;29;20213;-69
2022/01/12 15:10:27;;;;;;;17.83;7.78;;;5.80;99.90;;;;;;4930678;29;20262;-68
2022/01/12 15:12:56;;;;;;;17.35;9.55;;;5.80;99.90;;;;;;4927462;29;20230;-68
2022/01/12 15:15:23;;;;;;;20.50;9.85;;;5.80;99.90;;;;;;4928697;28;20779;-68
2022/01/12 15:17:49;;;;;;;20.75;8.95;;;5.70;99.90;;;;;;4931206;29;20266;-68
2022/01/12 15:20:17;;;;;;;20.45;8.75;;;5.70;99.90;;;;;;4931504;29;20690;-69
2022/01/12 15:22:45;;;;;;;17.85;9.40;;;5.70;99.90;;;;;;4935155;29;20229;-69
2022/01/12 15:25:17;;;;;;;23.52;9.05;;;5.70;99.90;;;;;;4934712;29;20687;-68
2022/01/12 15:27:44;;;;;;;16.13;9.10;;;5.70;99.90;;;;;;4933122;29;20210;-68
2022/01/12 15:30:12;;;;;;;21.48;8.38;;;5.60;99.90;;;;;;4933944;29;20202;-69
2022/01/12 15:32:39;;;;;;;13.25;9.18;;;5.60;99.90;;;;;;4935111;29;20604;-68
2022/01/12 15:35:06;;;;;;;19.05;10.05;;;5.60;99.90;;;;;;4935261;29;20209;-68
2022/01/12 15:37:33;;;;;;;13.75;8.45;;;5.60;99.90;;;;;;4935146;29;20238;-68
2022/01/12 15:40:00;;;;;;;14.00;9.15;;;5.60;99.90;;;;;;4932839;29;20233;-68
2022/01/12 15:42:28;;;;;;;19.05;9.68;;;5.60;99.90;;;;;;4932280;29;20239;-69
2022/01/12 15:44:55;;;;;;;10.32;8.10;;;5.50;99.90;;;;;;4934508;29;20691;-69
2022/01/12 15:47:22;;;;;;;14.82;8.90;;;5.60;99.90;;;;;;4935540;29;20214;-69
2022/01/12 15:49:49;;;;;;;17.88;8.85;;;5.60;99.90;;;;;;4933530;29;20210;-70
2022/01/12 15:52:15;;;;;;;25.77;10.38;;;5.50;99.90;;;;;;4935210;29;20230;-70
2022/01/12 15:54:42;;;;;;;19.42;10.18;;;5.50;99.90;;;;;;4928458;29;20288;-69
2022/01/12 15:57:10;;;;;;;17.92;10.60;;;5.50;99.90;;;;;;4934293;29;20210;-70
2022/01/12 15:59:38;;;;;;;13.90;9.77;;;5.50;99.90;;;;;;4940164;29;20228;-69
2022/01/12 16:02:05;;;;;;;18.02;10.07;;;5.50;99.90;;;;;;4934695;29;20329;-69
2022/01/12 16:04:32;;;;;;;17.17;9.50;;;5.50;99.90;;;;;;4932537;29;20209;-69
2022/01/12 16:06:59;;;;;;;19.77;9.93;;;5.50;99.90;;;;;;4934369;29;20202;-69
2022/01/12 16:09:25;;;;;;;20.08;12.40;;;5.50;99.90;;;;;;4930001;29;20262;-70
2022/01/12 16:11:53;;;;;;;26.42;13.45;;;5.50;99.90;;;;;;4933126;29;20273;-68
2022/01/12 16:14:20;;;;;;;23.48;10.73;;;5.50;99.90;;;;;;4934961;29;20214;-69
2022/01/12 16:16:48;;;;;;;24.77;13.43;;;5.40;99.90;;;;;;4935054;29;20707;-70
2022/01/12 16:19:15;;;;;;;25.75;13.07;;;5.40;99.90;;;;;;4935304;29;20267;-68
2022/01/12 16:21:43;;;;;;;23.23;11.85;;;5.50;99.90;;;;;;4931538;29;20260;-69
2022/01/12 16:24:15;;;;;;;21.27;10.05;;;5.50;99.90;;;;;;4934370;29;20751;-70
2022/01/12 16:26:43;;;;;;;23.27;11.55;;;5.50;99.90;;;;;;4935171;29;20730;-70
2022/01/12 16:29:13;;;;;;;21.35;12.85;;;5.40;99.90;;;;;;4934938;29;20620;-69
2022/01/12 16:31:41;;;;;;;22.52;11.75;;;5.40;99.90;;;;;;4934223;29;20233;-70
2022/01/12 16:34:11;;;;;;;20.58;11.38;;;5.40;99.90;;;;;;4931109;29;20277;-69
2022/01/12 16:36:38;;;;;;;20.02;10.60;;;5.40;99.90;;;;;;4930145;29;20201;-69
2022/01/12 16:39:08;;;;;;;27.30;11.77;;;5.40;99.90;;;;;;4934211;29;20210;-68
2022/01/12 16:41:35;;;;;;;29.77;13.35;;;5.40;99.90;;;;;;4933997;29;20237;-69
2022/01/12 16:44:02;;;;;;;23.20;11.82;;;5.40;99.90;;;;;;4934115;29;20254;-69
2022/01/12 16:46:29;;;;;;;29.85;14.75;;;5.40;99.90;;;;;;4934718;29;20210;-70
2022/01/12 16:48:56;;;;;;;27.50;14.60;;;5.40;99.90;;;;;;4934746;29;20228;-70
2022/01/12 16:51:24;;;;;;;29.48;15.02;;;5.40;99.90;;;;;;4928069;29;20225;-69
2022/01/12 16:53:50;;;;;;;27.88;14.23;;;5.40;99.90;;;;;;4933883;29;20206;-70
2022/01/12 16:56:17;;;;;;;30.58;13.68;;;5.40;99.90;;;;;;4933409;29;20275;-67
2022/01/12 16:58:47;;;;;;;25.38;13.32;;;5.40;99.90;;;;;;4927959;29;20265;-69
2022/01/12 17:01:14;;;;;;;30.23;16.33;;;5.50;99.90;;;;;;4930309;29;20562;-69
2022/01/12 17:03:42;;;;;;;25.20;13.98;;;5.50;99.90;;;;;;4932604;29;20209;-69
2022/01/12 17:06:11;;;;;;;28.23;13.35;;;5.40;99.90;;;;;;4928494;29;20229;-70
2022/01/12 17:08:41;;;;;;;32.40;16.67;;;5.40;99.90;;;;;;4932447;29;20203;-69
2022/01/12 17:11:08;;;;;;;28.65;15.23;;;5.40;99.90;;;;;;4925115;29;20281;-67
2022/01/12 17:13:35;;;;;;;35.75;17.15;;;5.40;99.90;;;;;;4933460;29;20943;-69
2022/01/12 17:16:56;;;;;;;34.58;16.30;;;5.50;99.90;;;;;;4933301;29;20233;-69
2022/01/12 17:19:25;;;;;;;28.80;15.68;;;5.50;99.90;;;;;;4928259;29;20210;-69
2022/01/12 17:21:53;;;;;;;25.02;13.73;;;5.50;99.90;;;;;;4931720;29;20320;-68
2022/01/12 17:24:27;;;;;;;33.50;15.02;;;5.50;99.90;;;;;;4930280;29;20202;-69
2022/01/12 17:27:11;;;;;;;32.72;16.00;;;5.50;99.90;;;;;;4933081;29;20256;-68
2022/01/12 17:29:39;;;;;;;29.00;16.00;;;5.50;99.90;;;;;;4932791;29;20615;-68
2022/01/12 17:32:06;;;;;;;29.33;17.10;;;5.50;99.90;;;;;;4930064;29;20244;-68
2022/01/12 17:34:34;;;;;;;35.45;18.33;;;5.50;99.90;;;;;;4932574;29;20206;-68
2022/01/12 17:37:03;;;;;;;29.88;17.58;;;5.50;99.90;;;;;;4933063;29;20275;-68
2022/01/12 17:39:34;;;;;;;26.52;16.50;;;5.50;99.90;;;;;;4932497;29;20292;-68
2022/01/12 17:42:03;;;;;;;30.67;15.90;;;5.50;99.90;;;;;;4932348;29;20233;-68
2022/01/12 17:44:32;;;;;;;33.63;19.52;;;5.50;99.90;;;;;;4933119;29;20221;-68
2022/01/12 17:47:01;;;;;;;35.75;17.52;;;5.50;99.90;;;;;;4933145;29;20210;-67
2022/01/12 17:49:34;;;;;;;36.40;18.77;;;5.50;99.90;;;;;;4932916;29;20220;-69
2022/01/12 17:52:01;;;;;;;39.60;18.23;;;5.50;99.90;;;;;;4929797;29;20226;-68
2022/01/12 17:54:28;;;;;;;34.03;18.48;;;5.50;99.90;;;;;;4926858;29;20247;-68
2022/01/12 17:56:56;;;;;;;36.63;18.95;;;5.50;99.90;;;;;;4932061;29;20690;-69
2022/01/12 17:59:23;;;;;;;39.72;19.60;;;5.60;99.90;;;;;;4932609;29;20261;-68
2022/01/12 18:01:50;;;;;;;36.92;21.13;;;5.60;99.90;;;;;;4932304;29;20242;-70
2022/01/12 18:04:16;;;;;;;35.75;17.80;;;5.50;99.90;;;;;;4932827;29;20210;-69